Alamo, Nevada
Current Conditions -  °F | °C
As of 2:58 PM on Friday 28 Nov 2014 (Local Time) from KINS Reporting Station
Clear Clear  
Wind Chill: 17°   Ceiling: Unl
Heat Index: 17°   Visibility: 10mi
Dew Point: -8°   Wind: 9mph
Humidity: 18%   Direction: 90°E
Pressure: 29.95"   Gusts: NA
Location:  37.36°N, 115.16°W
Report Text: KINS 282258Z AUTO 09008KT 10SM CLR 17/M08 A2995 RMK AO2 SLP128 T01731078 $
Loading
Personal Weather Stations






























Interactive Weather Map New forecast layout! Learn more

10-Day Weather Forecast

Advertisements
Track Severe Weather on mobile